sensor_id;sensor_type;location;lat;lon;timestamp;temperature;humidity
39347;DHT22;26262;49.836;6.632;2022-10-16T00:00:40;13.10;99.90
39347;DHT22;26262;49.836;6.632;2022-10-16T00:03:07;13.00;99.90
39347;DHT22;26262;49.836;6.632;2022-10-16T00:05:38;13.00;99.90
39347;DHT22;26262;49.836;6.632;2022-10-16T00:08:05;13.10;99.90
39347;DHT22;26262;49.836;6.632;2022-10-16T00:10:30;13.00;99.90
39347;DHT22;26262;49.836;6.632;2022-10-16T00:12:56;13.00;99.90
39347;DHT22;26262;49.836;6.632;2022-10-16T00:15:21;13.00;99.90
39347;DHT22;26262;49.836;6.632;2022-10-16T00:17:47;12.90;99.90
39347;DHT22;26262;49.836;6.632;2022-10-16T00:20:13;12.90;99.90
39347;DHT22;26262;49.836;6.632;2022-10-16T00:22:38;13.10;99.90
39347;DHT22;26262;49.836;6.632;2022-10-16T00:25:04;13.10;99.90
39347;DHT22;26262;49.836;6.632;2022-10-16T00:27:29;13.20;99.90
39347;DHT22;26262;49.836;6.632;2022-10-16T00:29:55;13.10;99.90
39347;DHT22;26262;49.836;6.632;2022-10-16T00:32:21;13.10;99.90
39347;DHT22;26262;49.836;6.632;2022-10-16T00:34:46;13.20;99.90
39347;DHT22;26262;49.836;6.632;2022-10-16T00:37:12;13.20;99.90
39347;DHT22;26262;49.836;6.632;2022-10-16T00:39:38;13.10;99.90
39347;DHT22;26262;49.836;6.632;2022-10-16T00:42:04;13.10;99.90
39347;DHT22;26262;49.836;6.632;2022-10-16T00:44:54;13.00;99.90
39347;DHT22;26262;49.836;6.632;2022-10-16T00:47:41;12.90;99.90
39347;DHT22;26262;49.836;6.632;2022-10-16T00:50:49;12.90;99.90
39347;DHT22;26262;49.836;6.632;2022-10-16T00:52:56;13.00;99.90
39347;DHT22;26262;49.836;6.632;2022-10-16T00:55:23;13.00;99.90
39347;DHT22;26262;49.836;6.632;2022-10-16T00:57:50;12.90;99.90
39347;DHT22;26262;49.836;6.632;2022-10-16T01:00:23;13.00;99.90
39347;DHT22;26262;49.836;6.632;2022-10-16T01:02:54;13.00;99.90
39347;DHT22;26262;49.836;6.632;2022-10-16T01:05:22;13.00;99.90
39347;DHT22;26262;49.836;6.632;2022-10-16T01:08:02;12.90;99.90
39347;DHT22;26262;49.836;6.632;2022-10-16T01:10:38;13.10;99.90
39347;DHT22;26262;49.836;6.632;2022-10-16T01:13:07;13.20;99.90
39347;DHT22;26262;49.836;6.632;2022-10-16T01:20:38;13.20;99.90
39347;DHT22;26262;49.836;6.632;2022-10-16T01:29:03;13.10;99.90
39347;DHT22;26262;49.836;6.632;2022-10-16T01:31:30;13.10;99.90
39347;DHT22;26262;49.836;6.632;2022-10-16T01:34:03;13.10;99.90
39347;DHT22;26262;49.836;6.632;2022-10-16T01:36:39;13.10;99.90
39347;DHT22;26262;49.836;6.632;2022-10-16T01:39:09;13.00;99.90
39347;DHT22;26262;49.836;6.632;2022-10-16T01:41:43;13.10;99.90
39347;DHT22;26262;49.836;6.632;2022-10-16T01:44:14;13.00;99.90
39347;DHT22;26262;49.836;6.632;2022-10-16T01:46:43;13.10;99.90
39347;DHT22;26262;49.836;6.632;2022-10-16T01:49:12;13.10;99.90
39347;DHT22;26262;49.836;6.632;2022-10-16T01:51:39;13.10;99.90
39347;DHT22;26262;49.836;6.632;2022-10-16T01:54:07;13.10;99.90
39347;DHT22;26262;49.836;6.632;2022-10-16T01:56:34;13.10;99.90
39347;DHT22;26262;49.836;6.632;2022-10-16T01:59:09;13.10;99.90
39347;DHT22;26262;49.836;6.632;2022-10-16T02:01:40;13.10;99.90
39347;DHT22;26262;49.836;6.632;2022-10-16T02:04:15;13.10;99.90
39347;DHT22;26262;49.836;6.632;2022-10-16T02:06:42;13.20;99.90
39347;DHT22;26262;49.836;6.632;2022-10-16T02:09:07;13.10;99.90
39347;DHT22;26262;49.836;6.632;2022-10-16T02:11:34;13.10;99.90
39347;DHT22;26262;49.836;6.632;2022-10-16T02:14:04;13.10;99.90
39347;DHT22;26262;49.836;6.632;2022-10-16T02:16:39;13.20;99.90
39347;DHT22;26262;49.836;6.632;2022-10-16T02:19:06;13.20;99.90
39347;DHT22;26262;49.836;6.632;2022-10-16T02:21:56;13.10;99.90
39347;DHT22;26262;49.836;6.632;2022-10-16T02:24:39;13.10;99.90
39347;DHT22;26262;49.836;6.632;2022-10-16T02:32:40;13.20;99.90
39347;DHT22;26262;49.836;6.632;2022-10-16T02:35:07;13.20;99.90
39347;DHT22;26262;49.836;6.632;2022-10-16T02:37:33;13.30;99.90
39347;DHT22;26262;49.836;6.632;2022-10-16T02:39:59;13.40;99.90
39347;DHT22;26262;49.836;6.632;2022-10-16T02:42:43;13.30;99.90
39347;DHT22;26262;49.836;6.632;2022-10-16T02:45:10;13.20;99.90
39347;DHT22;26262;49.836;6.632;2022-10-16T02:47:37;13.20;99.90
39347;DHT22;26262;49.836;6.632;2022-10-16T02:50:02;13.20;99.90
39347;DHT22;26262;49.836;6.632;2022-10-16T02:52:28;13.20;99.90
39347;DHT22;26262;49.836;6.632;2022-10-16T02:54:54;13.20;99.90
39347;DHT22;26262;49.836;6.632;2022-10-16T02:57:19;13.20;99.90
39347;DHT22;26262;49.836;6.632;2022-10-16T02:59:45;13.10;99.90
39347;DHT22;26262;49.836;6.632;2022-10-16T03:02:10;13.10;99.90
39347;DHT22;26262;49.836;6.632;2022-10-16T03:04:36;13.10;99.90
39347;DHT22;26262;49.836;6.632;2022-10-16T03:07:02;13.10;99.90
39347;DHT22;26262;49.836;6.632;2022-10-16T03:09:27;13.20;99.90
39347;DHT22;26262;49.836;6.632;2022-10-16T03:11:53;13.10;99.90
39347;DHT22;26262;49.836;6.632;2022-10-16T03:14:18;13.10;99.90
39347;DHT22;26262;49.836;6.632;2022-10-16T03:16:44;13.10;99.90
39347;DHT22;26262;49.836;6.632;2022-10-16T03:19:10;13.10;99.90
39347;DHT22;26262;49.836;6.632;2022-10-16T03:21:35;13.10;99.90
39347;DHT22;26262;49.836;6.632;2022-10-16T03:24:01;13.10;99.90
39347;DHT22;26262;49.836;6.632;2022-10-16T03:26:26;13.10;99.90
39347;DHT22;26262;49.836;6.632;2022-10-16T03:28:52;13.10;99.90
39347;DHT22;26262;49.836;6.632;2022-10-16T03:31:17;13.00;99.90
39347;DHT22;26262;49.836;6.632;2022-10-16T03:33:43;13.00;99.90
39347;DHT22;26262;49.836;6.632;2022-10-16T03:36:08;13.10;99.90
39347;DHT22;26262;49.836;6.632;2022-10-16T03:38:34;13.10;99.90
39347;DHT22;26262;49.836;6.632;2022-10-16T03:40:59;13.10;99.90
39347;DHT22;26262;49.836;6.632;2022-10-16T03:43:25;13.10;99.90
39347;DHT22;26262;49.836;6.632;2022-10-16T03:45:51;13.20;99.90
39347;DHT22;26262;49.836;6.632;2022-10-16T03:48:17;13.20;99.90
39347;DHT22;26262;49.836;6.632;2022-10-16T03:50:43;13.20;99.90
39347;DHT22;26262;49.836;6.632;2022-10-16T03:53:09;13.20;99.90
39347;DHT22;26262;49.836;6.632;2022-10-16T03:55:34;13.20;99.90
39347;DHT22;26262;49.836;6.632;2022-10-16T03:58:00;13.30;99.90
39347;DHT22;26262;49.836;6.632;2022-10-16T04:00:26;13.30;99.90
39347;DHT22;26262;49.836;6.632;2022-10-16T04:02:52;13.30;99.90
39347;DHT22;26262;49.836;6.632;2022-10-16T04:05:17;13.30;99.90
39347;DHT22;26262;49.836;6.632;2022-10-16T04:07:43;13.40;99.90
39347;DHT22;26262;49.836;6.632;2022-10-16T04:10:08;13.40;99.90
39347;DHT22;26262;49.836;6.632;2022-10-16T04:12:34;13.40;99.90
39347;DHT22;26262;49.836;6.632;2022-10-16T04:14:59;13.50;99.90
39347;DHT22;26262;49.836;6.632;2022-10-16T04:17:25;13.40;99.90
39347;DHT22;26262;49.836;6.632;2022-10-16T04:19:51;13.50;99.90
39347;DHT22;26262;49.836;6.632;2022-10-16T04:22:16;13.30;99.90
39347;DHT22;26262;49.836;6.632;2022-10-16T04:24:42;13.30;99.90
39347;DHT22;26262;49.836;6.632;2022-10-16T04:27:07;13.40;99.90
39347;DHT22;26262;49.836;6.632;2022-10-16T04:29:33;13.40;99.90
39347;DHT22;26262;49.836;6.632;2022-10-16T04:31:58;13.50;99.90
39347;DHT22;26262;49.836;6.632;2022-10-16T04:34:24;13.50;99.90
39347;DHT22;26262;49.836;6.632;2022-10-16T04:36:49;13.40;99.90
39347;DHT22;26262;49.836;6.632;2022-10-16T04:39:15;13.40;99.90
39347;DHT22;26262;49.836;6.632;2022-10-16T04:41:41;13.40;99.90
39347;DHT22;26262;49.836;6.632;2022-10-16T04:44:07;13.50;99.90
39347;DHT22;26262;49.836;6.632;2022-10-16T04:46:32;13.40;99.90
39347;DHT22;26262;49.836;6.632;2022-10-16T04:48:58;13.40;99.90
39347;DHT22;26262;49.836;6.632;2022-10-16T04:51:23;13.40;99.90
39347;DHT22;26262;49.836;6.632;2022-10-16T04:53:50;13.40;99.90
39347;DHT22;26262;49.836;6.632;2022-10-16T04:56:16;13.40;99.90
39347;DHT22;26262;49.836;6.632;2022-10-16T04:58:42;13.40;99.90
39347;DHT22;26262;49.836;6.632;2022-10-16T05:01:07;13.40;99.90
39347;DHT22;26262;49.836;6.632;2022-10-16T05:03:33;13.50;99.90
39347;DHT22;26262;49.836;6.632;2022-10-16T05:05:59;13.60;99.90
39347;DHT22;26262;49.836;6.632;2022-10-16T05:08:24;13.60;99.90
39347;DHT22;26262;49.836;6.632;2022-10-16T05:10:50;13.70;99.90
39347;DHT22;26262;49.836;6.632;2022-10-16T05:13:15;13.70;99.90
39347;DHT22;26262;49.836;6.632;2022-10-16T05:15:41;13.80;99.90
39347;DHT22;26262;49.836;6.632;2022-10-16T05:18:06;13.60;99.90
39347;DHT22;26262;49.836;6.632;2022-10-16T05:20:32;13.60;99.90
39347;DHT22;26262;49.836;6.632;2022-10-16T05:22:58;13.50;99.90
39347;DHT22;26262;49.836;6.632;2022-10-16T05:25:23;13.40;99.90
39347;DHT22;26262;49.836;6.632;2022-10-16T05:27:50;13.40;99.90
39347;DHT22;26262;49.836;6.632;2022-10-16T05:30:16;13.40;99.90
39347;DHT22;26262;49.836;6.632;2022-10-16T05:32:49;13.30;99.90
39347;DHT22;26262;49.836;6.632;2022-10-16T05:35:16;13.40;99.90
39347;DHT22;26262;49.836;6.632;2022-10-16T05:37:42;13.50;99.90
39347;DHT22;26262;49.836;6.632;2022-10-16T05:40:08;13.60;99.90
39347;DHT22;26262;49.836;6.632;2022-10-16T05:42:33;13.50;99.90
39347;DHT22;26262;49.836;6.632;2022-10-16T05:44:59;13.60;99.90
39347;DHT22;26262;49.836;6.632;2022-10-16T05:47:25;13.40;99.90
39347;DHT22;26262;49.836;6.632;2022-10-16T05:49:50;13.40;99.90
39347;DHT22;26262;49.836;6.632;2022-10-16T05:52:16;13.40;99.90
39347;DHT22;26262;49.836;6.632;2022-10-16T05:54:41;13.50;99.90
39347;DHT22;26262;49.836;6.632;2022-10-16T05:57:07;13.50;99.90
39347;DHT22;26262;49.836;6.632;2022-10-16T05:59:32;13.60;99.90
39347;DHT22;26262;49.836;6.632;2022-10-16T06:01:58;13.40;99.90
39347;DHT22;26262;49.836;6.632;2022-10-16T06:04:23;13.40;99.90
39347;DHT22;26262;49.836;6.632;2022-10-16T06:06:49;13.40;99.90
39347;DHT22;26262;49.836;6.632;2022-10-16T06:09:14;13.50;99.90
39347;DHT22;26262;49.836;6.632;2022-10-16T06:11:40;13.60;99.90
39347;DHT22;26262;49.836;6.632;2022-10-16T06:14:05;13.60;99.90
39347;DHT22;26262;49.836;6.632;2022-10-16T06:16:35;13.50;99.90
39347;DHT22;26262;49.836;6.632;2022-10-16T06:19:02;13.60;99.90
39347;DHT22;26262;49.836;6.632;2022-10-16T06:21:29;13.50;99.90
39347;DHT22;26262;49.836;6.632;2022-10-16T06:23:56;13.60;99.90
39347;DHT22;26262;49.836;6.632;2022-10-16T06:26:24;13.70;99.90
39347;DHT22;26262;49.836;6.632;2022-10-16T06:28:50;13.70;99.90
39347;DHT22;26262;49.836;6.632;2022-10-16T06:31:16;13.70;99.90
39347;DHT22;26262;49.836;6.632;2022-10-16T06:33:42;13.70;99.90
39347;DHT22;26262;49.836;6.632;2022-10-16T06:36:13;13.70;99.90
39347;DHT22;26262;49.836;6.632;2022-10-16T06:38:39;13.60;99.90
39347;DHT22;26262;49.836;6.632;2022-10-16T06:41:06;13.60;99.90
39347;DHT22;26262;49.836;6.632;2022-10-16T06:43:32;13.60;99.90
39347;DHT22;26262;49.836;6.632;2022-10-16T06:46:00;13.50;99.90
39347;DHT22;26262;49.836;6.632;2022-10-16T06:48:27;13.50;99.90
39347;DHT22;26262;49.836;6.632;2022-10-16T06:50:59;13.60;99.90
39347;DHT22;26262;49.836;6.632;2022-10-16T06:53:26;13.70;99.90
39347;DHT22;26262;49.836;6.632;2022-10-16T06:55:52;13.80;99.90
39347;DHT22;26262;49.836;6.632;2022-10-16T06:58:17;13.80;99.90
39347;DHT22;26262;49.836;6.632;2022-10-16T07:00:43;13.90;99.90
39347;DHT22;26262;49.836;6.632;2022-10-16T07:03:08;14.00;99.90
39347;DHT22;26262;49.836;6.632;2022-10-16T07:05:41;13.90;99.90
39347;DHT22;26262;49.836;6.632;2022-10-16T07:08:08;13.90;99.90
39347;DHT22;26262;49.836;6.632;2022-10-16T07:10:34;14.00;99.90
39347;DHT22;26262;49.836;6.632;2022-10-16T07:13:00;14.10;99.90
39347;DHT22;26262;49.836;6.632;2022-10-16T07:15:26;14.00;99.90
39347;DHT22;26262;49.836;6.632;2022-10-16T07:17:52;14.10;99.90
39347;DHT22;26262;49.836;6.632;2022-10-16T07:20:17;14.20;99.90
39347;DHT22;26262;49.836;6.632;2022-10-16T07:22:43;14.20;99.90
39347;DHT22;26262;49.836;6.632;2022-10-16T07:25:09;14.20;99.90
39347;DHT22;26262;49.836;6.632;2022-10-16T07:27:35;14.30;99.90
39347;DHT22;26262;49.836;6.632;2022-10-16T07:30:00;14.20;99.90
39347;DHT22;26262;49.836;6.632;2022-10-16T07:32:26;14.30;99.90
39347;DHT22;26262;49.836;6.632;2022-10-16T07:34:52;14.40;99.90
39347;DHT22;26262;49.836;6.632;2022-10-16T07:37:18;14.40;99.90
39347;DHT22;26262;49.836;6.632;2022-10-16T07:39:44;14.40;99.90
39347;DHT22;26262;49.836;6.632;2022-10-16T07:42:09;14.50;99.90
39347;DHT22;26262;49.836;6.632;2022-10-16T07:44:35;14.50;99.90
39347;DHT22;26262;49.836;6.632;2022-10-16T07:47:00;14.40;99.90
39347;DHT22;26262;49.836;6.632;2022-10-16T07:49:26;14.50;99.90
39347;DHT22;26262;49.836;6.632;2022-10-16T07:51:51;14.50;99.90
39347;DHT22;26262;49.836;6.632;2022-10-16T07:54:17;14.50;99.90
39347;DHT22;26262;49.836;6.632;2022-10-16T07:56:43;14.60;99.90
39347;DHT22;26262;49.836;6.632;2022-10-16T07:59:08;14.60;99.90
39347;DHT22;26262;49.836;6.632;2022-10-16T08:01:34;14.50;99.90
39347;DHT22;26262;49.836;6.632;2022-10-16T08:03:59;14.50;99.90
39347;DHT22;26262;49.836;6.632;2022-10-16T08:06:25;14.60;99.90
39347;DHT22;26262;49.836;6.632;2022-10-16T08:08:50;14.70;99.90
39347;DHT22;26262;49.836;6.632;2022-10-16T08:11:16;14.80;99.90
39347;DHT22;26262;49.836;6.632;2022-10-16T08:13:42;14.80;99.90
39347;DHT22;26262;49.836;6.632;2022-10-16T08:16:07;14.70;99.90
39347;DHT22;26262;49.836;6.632;2022-10-16T08:18:35;14.80;99.90
39347;DHT22;26262;49.836;6.632;2022-10-16T08:21:02;14.70;99.90
39347;DHT22;26262;49.836;6.632;2022-10-16T08:23:29;14.70;99.90
39347;DHT22;26262;49.836;6.632;2022-10-16T08:25:55;14.70;99.90
39347;DHT22;26262;49.836;6.632;2022-10-16T08:28:22;14.80;99.90
39347;DHT22;26262;49.836;6.632;2022-10-16T08:30:48;14.80;99.90
39347;DHT22;26262;49.836;6.632;2022-10-16T08:33:13;14.90;99.90
39347;DHT22;26262;49.836;6.632;2022-10-16T08:35:39;14.90;99.90
39347;DHT22;26262;49.836;6.632;2022-10-16T08:38:05;14.70;99.90
39347;DHT22;26262;49.836;6.632;2022-10-16T08:40:32;14.80;99.90
39347;DHT22;26262;49.836;6.632;2022-10-16T08:45:38;15.00;99.90
39347;DHT22;26262;49.836;6.632;2022-10-16T08:50:40;15.10;99.90
39347;DHT22;26262;49.836;6.632;2022-10-16T08:53:07;15.20;99.90
39347;DHT22;26262;49.836;6.632;2022-10-16T08:55:45;15.20;99.90
39347;DHT22;26262;49.836;6.632;2022-10-16T08:58:17;15.20;99.90
39347;DHT22;26262;49.836;6.632;2022-10-16T09:00:46;15.20;99.90
39347;DHT22;26262;49.836;6.632;2022-10-16T09:12:21;15.50;99.90
39347;DHT22;26262;49.836;6.632;2022-10-16T09:23:18;15.90;99.90
39347;DHT22;26262;49.836;6.632;2022-10-16T09:25:46;15.80;99.90
39347;DHT22;26262;49.836;6.632;2022-10-16T09:28:13;16.00;99.90
39347;DHT22;26262;49.836;6.632;2022-10-16T09:30:39;16.10;99.90
39347;DHT22;26262;49.836;6.632;2022-10-16T09:33:06;16.20;99.90
39347;DHT22;26262;49.836;6.632;2022-10-16T09:35:40;16.40;99.90
39347;DHT22;26262;49.836;6.632;2022-10-16T09:38:07;16.50;99.90
39347;DHT22;26262;49.836;6.632;2022-10-16T09:40:36;16.60;99.90
39347;DHT22;26262;49.836;6.632;2022-10-16T09:43:27;16.60;99.90
39347;DHT22;26262;49.836;6.632;2022-10-16T09:45:58;16.60;99.90
39347;DHT22;26262;49.836;6.632;2022-10-16T09:48:27;16.70;99.90
39347;DHT22;26262;49.836;6.632;2022-10-16T09:50:58;16.60;99.90
39347;DHT22;26262;49.836;6.632;2022-10-16T09:53:36;16.70;99.90
39347;DHT22;26262;49.836;6.632;2022-10-16T09:56:02;16.70;99.90
39347;DHT22;26262;49.836;6.632;2022-10-16T09:58:30;16.60;99.90
39347;DHT22;26262;49.836;6.632;2022-10-16T10:00:58;16.70;99.90
39347;DHT22;26262;49.836;6.632;2022-10-16T10:03:36;16.80;99.90
39347;DHT22;26262;49.836;6.632;2022-10-16T10:06:19;16.80;99.90
39347;DHT22;26262;49.836;6.632;2022-10-16T10:11:54;16.90;99.90
39347;DHT22;26262;49.836;6.632;2022-10-16T10:14:27;16.90;99.90
39347;DHT22;26262;49.836;6.632;2022-10-16T10:17:14;16.90;99.90
39347;DHT22;26262;49.836;6.632;2022-10-16T10:31:03;16.80;99.90
39347;DHT22;26262;49.836;6.632;2022-10-16T10:33:46;16.70;99.90
39347;DHT22;26262;49.836;6.632;2022-10-16T10:36:29;16.70;99.90
39347;DHT22;26262;49.836;6.632;2022-10-16T10:52:58;17.10;99.90
39347;DHT22;26262;49.836;6.632;2022-10-16T10:58:33;17.10;99.90
39347;DHT22;26262;49.836;6.632;2022-10-16T11:06:30;17.10;99.90
39347;DHT22;26262;49.836;6.632;2022-10-16T11:11:54;17.20;99.90
39347;DHT22;26262;49.836;6.632;2022-10-16T11:14:35;17.20;99.90
39347;DHT22;26262;49.836;6.632;2022-10-16T11:17:16;17.20;99.90
39347;DHT22;26262;49.836;6.632;2022-10-16T11:22:36;17.20;99.90
39347;DHT22;26262;49.836;6.632;2022-10-16T11:30:30;17.10;99.90
39347;DHT22;26262;49.836;6.632;2022-10-16T11:35:44;17.20;99.90
39347;DHT22;26262;49.836;6.632;2022-10-16T11:38:20;17.20;99.90
39347;DHT22;26262;49.836;6.632;2022-10-16T11:40:48;17.20;99.90
39347;DHT22;26262;49.836;6.632;2022-10-16T11:43:22;17.30;99.90
39347;DHT22;26262;49.836;6.632;2022-10-16T11:46:01;17.20;99.90
39347;DHT22;26262;49.836;6.632;2022-10-16T11:48:53;17.30;99.90
39347;DHT22;26262;49.836;6.632;2022-10-16T11:56:52;17.40;99.90
39347;DHT22;26262;49.836;6.632;2022-10-16T11:59:34;17.40;99.90
39347;DHT22;26262;49.836;6.632;2022-10-16T12:07:57;17.50;99.90
39347;DHT22;26262;49.836;6.632;2022-10-16T12:10:28;17.40;99.90
39347;DHT22;26262;49.836;6.632;2022-10-16T12:12:54;17.50;99.90
39347;DHT22;26262;49.836;6.632;2022-10-16T12:15:28;17.50;99.90
39347;DHT22;26262;49.836;6.632;2022-10-16T12:17:55;17.60;99.90
39347;DHT22;26262;49.836;6.632;2022-10-16T12:20:30;17.70;99.90
39347;DHT22;26262;49.836;6.632;2022-10-16T12:23:06;17.80;99.90
39347;DHT22;26262;49.836;6.632;2022-10-16T12:25:36;17.70;99.90
39347;DHT22;26262;49.836;6.632;2022-10-16T12:28:20;17.70;99.90
39347;DHT22;26262;49.836;6.632;2022-10-16T12:31:03;17.60;99.90
39347;DHT22;26262;49.836;6.632;2022-10-16T12:33:35;17.70;99.90
39347;DHT22;26262;49.836;6.632;2022-10-16T12:36:12;17.90;99.90
39347;DHT22;26262;49.836;6.632;2022-10-16T12:38:47;17.90;99.90
39347;DHT22;26262;49.836;6.632;2022-10-16T12:41:24;17.90;99.90
39347;DHT22;26262;49.836;6.632;2022-10-16T12:43:52;17.80;99.90
39347;DHT22;26262;49.836;6.632;2022-10-16T12:48:44;17.90;99.90
39347;DHT22;26262;49.836;6.632;2022-10-16T12:59:48;17.90;99.90
39347;DHT22;26262;49.836;6.632;2022-10-16T13:07:43;17.60;99.90
39347;DHT22;26262;49.836;6.632;2022-10-16T13:16:10;17.60;99.90
39347;DHT22;26262;49.836;6.632;2022-10-16T13:19:00;17.40;99.90
39347;DHT22;26262;49.836;6.632;2022-10-16T13:21:55;17.50;99.90
39347;DHT22;26262;49.836;6.632;2022-10-16T13:30:15;17.20;99.90
39347;DHT22;26262;49.836;6.632;2022-10-16T13:32:58;17.30;99.90
39347;DHT22;26262;49.836;6.632;2022-10-16T13:35:30;17.40;99.90
39347;DHT22;26262;49.836;6.632;2022-10-16T13:40:36;17.60;99.90
39347;DHT22;26262;49.836;6.632;2022-10-16T13:43:12;17.70;99.90
39347;DHT22;26262;49.836;6.632;2022-10-16T13:45:38;17.80;99.90
39347;DHT22;26262;49.836;6.632;2022-10-16T13:48:09;17.90;99.90
39347;DHT22;26262;49.836;6.632;2022-10-16T13:50:37;18.00;99.90
39347;DHT22;26262;49.836;6.632;2022-10-16T13:53:06;18.00;99.90
39347;DHT22;26262;49.836;6.632;2022-10-16T13:55:37;18.10;99.90
39347;DHT22;26262;49.836;6.632;2022-10-16T13:58:12;18.10;99.90
39347;DHT22;26262;49.836;6.632;2022-10-16T14:00:38;18.20;99.90
39347;DHT22;26262;49.836;6.632;2022-10-16T14:03:13;18.10;99.90
39347;DHT22;26262;49.836;6.632;2022-10-16T14:05:49;17.90;99.90
39347;DHT22;26262;49.836;6.632;2022-10-16T14:08:15;17.70;99.90
39347;DHT22;26262;49.836;6.632;2022-10-16T14:10:41;17.50;99.90
39347;DHT22;26262;49.836;6.632;2022-10-16T14:13:13;17.50;99.90
39347;DHT22;26262;49.836;6.632;2022-10-16T14:15:46;17.60;99.90
39347;DHT22;26262;49.836;6.632;2022-10-16T14:18:21;17.50;99.90
39347;DHT22;26262;49.836;6.632;2022-10-16T14:20:49;17.40;99.90
39347;DHT22;26262;49.836;6.632;2022-10-16T14:23:28;17.50;99.90
39347;DHT22;26262;49.836;6.632;2022-10-16T14:25:53;17.40;99.90
39347;DHT22;26262;49.836;6.632;2022-10-16T14:28:21;17.20;99.90
39347;DHT22;26262;49.836;6.632;2022-10-16T14:31:30;17.20;99.90
39347;DHT22;26262;49.836;6.632;2022-10-16T14:33:56;17.20;99.90
39347;DHT22;26262;49.836;6.632;2022-10-16T14:36:22;17.20;99.90
39347;DHT22;26262;49.836;6.632;2022-10-16T14:41:21;17.00;99.90
39347;DHT22;26262;49.836;6.632;2022-10-16T14:43:51;16.90;99.90
39347;DHT22;26262;49.836;6.632;2022-10-16T14:46:22;17.00;99.90
39347;DHT22;26262;49.836;6.632;2022-10-16T14:48:58;17.00;99.90
39347;DHT22;26262;49.836;6.632;2022-10-16T14:51:25;17.00;99.90
39347;DHT22;26262;49.836;6.632;2022-10-16T14:53:51;17.10;99.90
39347;DHT22;26262;49.836;6.632;2022-10-16T14:56:19;17.20;99.90
39347;DHT22;26262;49.836;6.632;2022-10-16T14:58:45;17.10;99.90
39347;DHT22;26262;49.836;6.632;2022-10-16T15:01:11;17.10;99.90
39347;DHT22;26262;49.836;6.632;2022-10-16T15:03:37;17.20;99.90
39347;DHT22;26262;49.836;6.632;2022-10-16T15:06:03;17.20;99.90
39347;DHT22;26262;49.836;6.632;2022-10-16T15:08:33;17.10;99.90
39347;DHT22;26262;49.836;6.632;2022-10-16T15:10:58;16.90;99.90
39347;DHT22;26262;49.836;6.632;2022-10-16T15:13:24;16.80;99.90
39347;DHT22;26262;49.836;6.632;2022-10-16T15:15:49;16.80;99.90
39347;DHT22;26262;49.836;6.632;2022-10-16T15:18:15;16.90;99.90
39347;DHT22;26262;49.836;6.632;2022-10-16T15:20:47;17.00;99.90
39347;DHT22;26262;49.836;6.632;2022-10-16T15:23:15;17.00;99.90
39347;DHT22;26262;49.836;6.632;2022-10-16T15:25:44;17.10;99.90
39347;DHT22;26262;49.836;6.632;2022-10-16T15:28:10;17.10;99.90
39347;DHT22;26262;49.836;6.632;2022-10-16T15:30:37;16.90;99.90
39347;DHT22;26262;49.836;6.632;2022-10-16T15:33:04;16.80;99.90
39347;DHT22;26262;49.836;6.632;2022-10-16T15:35:30;16.80;99.90
39347;DHT22;26262;49.836;6.632;2022-10-16T15:37:56;16.70;99.90
39347;DHT22;26262;49.836;6.632;2022-10-16T15:40:21;16.60;99.90
39347;DHT22;26262;49.836;6.632;2022-10-16T15:42:48;16.70;99.90
39347;DHT22;26262;49.836;6.632;2022-10-16T15:45:14;16.70;99.90
39347;DHT22;26262;49.836;6.632;2022-10-16T15:47:41;16.70;99.90
39347;DHT22;26262;49.836;6.632;2022-10-16T15:50:08;16.80;99.90
39347;DHT22;26262;49.836;6.632;2022-10-16T15:52:34;16.90;99.90
39347;DHT22;26262;49.836;6.632;2022-10-16T15:54:59;17.00;99.90
39347;DHT22;26262;49.836;6.632;2022-10-16T15:57:27;17.10;99.90
39347;DHT22;26262;49.836;6.632;2022-10-16T15:59:52;17.10;99.90
39347;DHT22;26262;49.836;6.632;2022-10-16T16:02:18;17.20;99.90
39347;DHT22;26262;49.836;6.632;2022-10-16T16:04:43;17.10;99.90
39347;DHT22;26262;49.836;6.632;2022-10-16T16:07:09;17.10;99.90
39347;DHT22;26262;49.836;6.632;2022-10-16T16:09:35;16.90;99.90
39347;DHT22;26262;49.836;6.632;2022-10-16T16:12:00;16.90;99.90
39347;DHT22;26262;49.836;6.632;2022-10-16T16:14:27;17.00;99.90
39347;DHT22;26262;49.836;6.632;2022-10-16T16:16:54;16.90;99.90
39347;DHT22;26262;49.836;6.632;2022-10-16T16:19:20;16.80;99.90
39347;DHT22;26262;49.836;6.632;2022-10-16T16:21:49;16.90;99.90
39347;DHT22;26262;49.836;6.632;2022-10-16T16:24:15;16.90;99.90
39347;DHT22;26262;49.836;6.632;2022-10-16T16:26:41;16.90;99.90
39347;DHT22;26262;49.836;6.632;2022-10-16T16:29:11;16.90;99.90
39347;DHT22;26262;49.836;6.632;2022-10-16T16:31:39;16.90;99.90
39347;DHT22;26262;49.836;6.632;2022-10-16T16:34:04;16.80;99.90
39347;DHT22;26262;49.836;6.632;2022-10-16T16:36:31;16.70;99.90
39347;DHT22;26262;49.836;6.632;2022-10-16T16:38:56;16.50;99.90
39347;DHT22;26262;49.836;6.632;2022-10-16T16:41:25;16.60;99.90
39347;DHT22;26262;49.836;6.632;2022-10-16T16:43:51;16.30;99.90
39347;DHT22;26262;49.836;6.632;2022-10-16T16:46:18;16.00;99.90
39347;DHT22;26262;49.836;6.632;2022-10-16T16:48:44;16.00;99.90
39347;DHT22;26262;49.836;6.632;2022-10-16T16:51:12;16.00;99.90
39347;DHT22;26262;49.836;6.632;2022-10-16T16:53:46;16.10;99.90
39347;DHT22;26262;49.836;6.632;2022-10-16T16:56:12;16.10;99.90
39347;DHT22;26262;49.836;6.632;2022-10-16T16:58:38;16.10;99.90
39347;DHT22;26262;49.836;6.632;2022-10-16T17:01:04;16.00;99.90
39347;DHT22;26262;49.836;6.632;2022-10-16T17:03:32;15.90;99.90
39347;DHT22;26262;49.836;6.632;2022-10-16T17:06:07;15.70;99.90
39347;DHT22;26262;49.836;6.632;2022-10-16T17:08:34;15.70;99.90
39347;DHT22;26262;49.836;6.632;2022-10-16T17:11:00;15.50;99.90
39347;DHT22;26262;49.836;6.632;2022-10-16T17:13:28;15.50;99.90
39347;DHT22;26262;49.836;6.632;2022-10-16T17:15:54;15.60;99.90
39347;DHT22;26262;49.836;6.632;2022-10-16T17:18:22;15.50;99.90
39347;DHT22;26262;49.836;6.632;2022-10-16T17:20:49;15.50;99.90
39347;DHT22;26262;49.836;6.632;2022-10-16T17:23:16;15.50;99.90
39347;DHT22;26262;49.836;6.632;2022-10-16T17:25:42;15.40;99.90
39347;DHT22;26262;49.836;6.632;2022-10-16T17:28:09;15.50;99.90
39347;DHT22;26262;49.836;6.632;2022-10-16T17:30:36;15.50;99.90
39347;DHT22;26262;49.836;6.632;2022-10-16T17:33:03;15.30;99.90
39347;DHT22;26262;49.836;6.632;2022-10-16T17:35:29;15.20;99.90
39347;DHT22;26262;49.836;6.632;2022-10-16T17:38:00;15.20;99.90
39347;DHT22;26262;49.836;6.632;2022-10-16T17:40:26;15.10;99.90
39347;DHT22;26262;49.836;6.632;2022-10-16T17:42:51;15.00;99.90
39347;DHT22;26262;49.836;6.632;2022-10-16T17:45:17;15.10;99.90
39347;DHT22;26262;49.836;6.632;2022-10-16T17:47:42;15.10;99.90
39347;DHT22;26262;49.836;6.632;2022-10-16T17:50:08;15.10;99.90
39347;DHT22;26262;49.836;6.632;2022-10-16T17:52:33;15.00;99.90